• Join FlightAware (Why Join?)
  • Login
  • US Flag 
08:34AM EDT


 

Airport Tracker/Info


-or-


 

Live Flight TrackerFlight Track Log ✈ UAL5822 ✈ 22-Apr-2013 ✈ KMHT - KORD

Flight Track Log - Related Links

Times and Time Zones

All times are in EDT time to prevent confusion due to time zone crossing. See the UAL5822 flight status page for this flight to view local times or setup timezone preferences in your user account.

Time Position Orientation Groundspeed Altitude Reporting Facility
EDT Latitude Longitude Course Direction KTS MPH feet Rate Location/Type
07:13AM 42.9500 -71.4167 14° North 154 177 1,000  Level KA90
07:14AM 43.0228 -71.3922 14° North 236 272 3,500 2,040 Climbing Boston Center
07:15AM 43.0672 -71.4681 309° West 199 229 6,100 2,280 Climbing Boston Center
07:16AM 43.0703 -71.5589 273° West 222 255 8,100 2,100 Climbing Boston Center
07:17AM 43.0792 -71.6697 276° West 264 304 10,400 1,740 Climbing Boston Center
07:18AM 43.0861 -71.7692 275° West 280 322 11,600 1,200 Climbing Boston Center
07:19AM 43.0953 -71.9000 276° West 307 353 12,800 1,020 Climbing Boston Center
07:20AM 43.1042 -72.0192 276° West 339 390 13,700 1,080 Climbing Boston Center
07:21AM 43.1169 -72.1614 277° West 352 405 15,300 1,260 Climbing Boston Center
07:22AM 43.1297 -72.3064 277° West 352 405 16,600 1,200 Climbing Boston Center
07:23AM 43.1422 -72.4431 277° West 352 405 17,800 660 Climbing Boston Center
07:24AM 43.1547 -72.5767 277° West 352 405 18,000 600 Climbing Boston Center
07:25AM 43.1650 -72.7133 276° West 352 405 19,000 900 Climbing Boston Center
07:26AM 43.1750 -72.8528 276° West 363 418 19,900 900 Climbing Boston Center
07:27AM 43.1869 -72.9953 277° West 374 430 20,900 900 Climbing Boston Center
07:28AM 43.2006 -73.1378 278° West 379 436 21,800 1,080 Climbing Boston Center
07:29AM 43.2142 -73.2806 278° West 379 436 23,100 1,320 Climbing Boston Center
07:30AM 43.2233 -73.4344 275° West 373 429 24,500 1,260 Climbing Boston Center
07:31AM 43.2242 -73.5683 271° West 366 421 25,700 1,140 Climbing Boston Center
07:32AM 43.2228 -73.7053 269° West 366 421 26,800 1,020 Climbing Boston Center
07:33AM 43.2192 -73.8419 268° West 366 421 27,800 960 Climbing Boston Center
07:34AM 43.2175 -73.9758 269° West 361 415 28,800 900 Climbing Boston Center
07:35AM 43.2136 -74.1067 268° West 356 410 29,700 900 Climbing Boston Center
07:36AM 43.2136 -74.2378 270° West 356 410 30,700 960 Climbing Boston Center
07:37AM 43.2094 -74.3714 268° West 356 410 31,700 840 Climbing Boston Center
07:38AM 43.2072 -74.4883 269° West 356 410 32,400 840 Climbing Boston Center
07:39AM 43.2047 -74.6219 269° West 350 403 33,400 900 Climbing Boston Center
07:40AM 43.2022 -74.7531 269° West 350 403 34,300 900 Climbing Boston Center
07:41AM 43.1994 -74.8839 268° West 345 397 35,300 840 Climbing Boston Center
07:42AM 43.1967 -75.0119 268° West 345 397 36,000 300 Climbing Boston Center
07:43AM 43.1917 -75.1400 267° West 345 397 36,000  Level Boston Center
07:44AM 43.1861 -75.2792 267° West 357 411 36,000  Level Boston Center
07:45AM 43.1847 -75.4244 269° West 368 423 36,000  Level Boston Center
07:46AM 43.1828 -75.5697 269° West 380 437 36,000  Level Boston Center
07:47AM 43.1764 -75.7231 267° West 393 452 36,000  Level Boston Center
07:48AM 43.1719 -75.8739 268° West 399 459 36,000  Level Boston Center
07:50AM 43.1500 -76.1667 264° West 400 460 36,000  Level Toronto Center
07:51AM 43.1606 -76.2481 280° West 405 466 36,000  Level Cleveland Center
07:52AM 43.1619 -76.3961 271° West 405 466 36,000  Level Cleveland Center
07:53AM 43.1589 -76.5500 268° West 405 466 36,000  Level Cleveland Center
07:54AM 43.1592 -76.6753 270° West 405 466 36,000  Level Cleveland Center
07:55AM 43.1589 -76.8575 270° West 405 466 36,000  Level Cleveland Center
07:56AM 43.1592 -76.9969 270° West 405 466 36,000  Level Cleveland Center
07:57AM 43.1575 -77.1481 269° West 405 466 36,000  Level Cleveland Center
07:58AM 43.1556 -77.2989 269° West 405 466 36,000  Level Cleveland Center
07:59AM 43.1556 -77.4497 270° West 405 466 36,000  Level Cleveland Center
08:00AM 43.1533 -77.5978 269° West 405 466 36,000  Level Cleveland Center
08:01AM 43.1508 -77.7517 269° West 405 466 36,000  Level Cleveland Center
08:02AM 43.1503 -77.9053 270° West 405 466 36,000  Level Cleveland Center
08:03AM 43.1456 -78.0592 268° West 405 466 36,000  Level Cleveland Center
08:04AM 43.1444 -78.2131 269° West 405 466 36,000  Level Cleveland Center
08:05AM 43.1436 -78.3694 270° West 405 466 36,000  Level Cleveland Center
08:06AM 43.1381 -78.5233 267° West 410 472 36,000  Level Cleveland Center
08:07AM 43.1344 -78.6772 268° West 410 472 36,000  Level Cleveland Center
08:08AM 43.1306 -78.8367 268° West 410 472 36,000  Level Cleveland Center
08:08AM 43.1167 -78.9500 261° West 410 472 36,000  Level Toronto Center
08:09AM 43.1167 -79.0833 270° West 410 472 36,000  Level Toronto Center
08:10AM 43.1000 -79.2500 262° West 410 472 36,000  Level Toronto Center
08:11AM 43.1000 -79.4000 270° West 410 472 36,000  Level Toronto Center
08:12AM 43.1000 -79.5667 270° West 410 472 36,000  Level Toronto Center
08:13AM 43.0833 -79.7167 261° West 410 472 36,000  Level Toronto Center
08:14AM 43.0833 -79.8667 270° West 410 472 36,000  Level Toronto Center
08:15AM 43.0833 -80.0167 270° West 410 472 36,000  Level Toronto Center
08:16AM 43.0667 -80.1833 262° West 400 460 36,000  Level Toronto Center
08:17AM 43.0667 -80.3167 270° West 400 460 36,000  Level Toronto Center
08:18AM 43.0667 -80.4833 270° West 400 460 36,000  Level Toronto Center
08:19AM 43.0500 -80.6333 261° West 400 460 36,000  Level Toronto Center
08:20AM 43.0500 -80.7667 270° West 400 460 36,000  Level Toronto Center
08:21AM 43.0333 -80.9333 262° West 400 460 36,000  Level Toronto Center
08:22AM 43.0167 -81.1000 262° West 400 460 36,000  Level Toronto Center
08:23AM 43.0167 -81.2500 270° West 400 460 36,000  Level Toronto Center
08:24AM 43.0167 -81.4167 270° West 410 472 36,000  Level Toronto Center
08:25AM 43.0167 -81.5500 270° West 410 472 36,000  Level Toronto Center
08:26AM 43.0167 -81.7000 270° West 410 472 36,000  Level Toronto Center
08:27AM 43.0167 -81.8667 270° West 410 472 36,000  Level Toronto Center
08:28AM 43.0000 -82.0000 260° West 410 472 36,000  Level Toronto Center
08:29AM 43.0000 -82.1833 270° West 410 472 36,000  Level Toronto Center
08:30AM 43.0000 -82.3167 270° West 410 472 36,000  Level Toronto Center
08:31AM 43.0000 -82.4833 270° West 410 472 36,000 -300 Level Toronto Center
08:32AM 42.9833 -82.6500 262° West 410 472 35,400 -660 Descending Toronto Center
08:33AM 42.9983 -82.7492 282° West 414 476 34,900 -720 Descending Cleveland Center
08:34AM 42.9953 -82.9053 269° West 414 476 34,200 -780 Descending Cleveland Center
08:35AM 42.9881 -83.0581 266° West 414 476 33,400 -840 Descending Cleveland Center
08:36AM 42.9867 -83.2114 269° West 408 470 32,600 -720 Descending Cleveland Center
08:37AM 42.9811 -83.3644 267° West 403 464 32,000 -300 Descending Cleveland Center
08:38AM 42.9753 -83.5089 267° West 398 458 32,000  Level Cleveland Center
08:39AM 42.9694 -83.6619 267° West 398 458 32,000  Level Cleveland Center
08:40AM 42.9589 -83.8175 265° West 409 471 32,000  Level Cleveland Center
08:41AM 42.9439 -83.9728 263° West 414 476 32,000  Level Cleveland Center
08:42AM 42.9269 -84.1250 261° West 414 476 32,000  Level Cleveland Center
08:43AM 42.9136 -84.2772 263° West 414 476 32,000  Level Cleveland Center
08:44AM 42.9017 -84.4078 263° West 412 474 32,000  Level Chicago Center
08:45AM 42.8858 -84.5614 262° West 410 472 32,000  Level Chicago Center
08:46AM 42.8694 -84.7169 262° West 412 474 32,000  Level Chicago Center
08:47AM 42.8544 -84.8700 262° West 410 472 32,000  Level Chicago Center
08:48AM 42.8375 -85.0233 261° West 410 472 32,000  Level Chicago Center
08:49AM 42.8208 -85.1764 262° West 410 472 32,000 -60 Level Chicago Center
08:50AM 42.8019 -85.3597 262° West 406 467 31,900 -540 Descending Chicago Center
08:51AM 42.7842 -85.5131 261° West 408 470 31,000 -1,200 Descending Chicago Center
08:52AM 42.7561 -85.6633 256° West 409 471 29,500 -1,560 Descending Chicago Center
08:53AM 42.7297 -85.8161 257° West 411 473 27,800 -2,040 Descending Chicago Center
08:54AM 42.7011 -85.9711 256° West 417 480 25,400 -2,460 Descending Chicago Center
08:55AM 42.6722 -86.1281 256° West 424 488 22,700 -2,580 Descending Chicago Center
08:56AM 42.6447 -86.2767 256° West 409 471 20,100 -1,800 Descending Chicago Center
08:57AM 42.6178 -86.4175 255° West 388 447 19,100 -1,200 Descending Chicago Center
08:58AM 42.5858 -86.5908 256° West 394 453 17,700 -1,500 Descending Chicago Center
08:59AM 42.5581 -86.7325 255° West 390 449 16,100 -1,800 Descending Chicago Center
09:00AM 42.5233 -86.8628 250° West 372 428 14,100 -2,340 Descending Chicago Center
09:01AM 42.4903 -86.9836 250° West 347 399 11,300 -2,040 Descending Chicago Center
09:02AM 42.4575 -87.0989 249° West 333 383 9,900 -1,140 Descending Chicago Center
09:03AM 42.4311 -87.1981 250° West 283 326 9,000 -780 Descending Chicago Center
09:05AM 42.3983 -87.2850 243° Southwest 263 303 8,400 -900 Descending Chicago Center
09:06AM 42.3564 -87.3883 241° Southwest 262 302 7,200 -720 Descending Chicago Center
09:07AM 42.3247 -87.4692 242° Southwest 238 274 7,000 -120 Descending Chicago Center
09:08AM 42.2958 -87.5425 242° Southwest 219 252 7,000  Level Chicago Center
09:09AM 42.2589 -87.6069 232° Southwest 225 259 7,000 -240 Level Chicago Center
09:10AM 42.2169 -87.6542 220° Southwest 198 228 6,600 -840 Descending Chicago Center
09:11AM 42.1758 -87.6994 219° Southwest 191 220 5,400 -1,140 Descending Chicago Center
09:12AM 42.1364 -87.7442 220° Southwest 187 215 4,300 -1,200 Descending Chicago Center
09:12AM 42.1167 -87.7667 220° Southwest 177 204 3,900 -1,080 Descending Chicago TRACON
09:13AM 42.0833 -87.8000 217° Southwest 164 189 3,000 -900 Descending Chicago TRACON
09:14AM 42.0500 -87.8333 217° Southwest 123 142 2,200 -780 Descending Chicago TRACON
09:15AM 42.0333 -87.8500 217° Southwest 111 128 1,600 -720 Descending Chicago TRACON
09:16AM 42.0000 -87.8833 217° Southwest 131 151 900 -720 Descending Chicago TRACON
09:18AM 41.9817 -87.9067 217° Southwest  Level Estimated